CheckWX is a tool to help pilots better visualize weather data.  It is not intended as a substitute for an official pre-flight weather briefing.

19:21:11 UTC

UASP TAF
Pavlodar
Pavlodar, Kazakhstan
TAF UASP 201700Z 2018/2103 04003MPS 9999 SCT030 TEMPO 2023/2103 09003MPS 3100 BR FU SCT011

Jun-20@
18:00 UTC

Jun-20 @ 18:00 UTC

Jun-21@
03:00 UTC

Jun-21 @ 03:00 UTC

TAF UASP 201700Z 2018/2103 04003MPS 9999 SCT030
Wind
  • 040° at 6 KTS
Cloud Levels
  • Scattered at 3,000' AGL

Jun-20@
23:00 UTC

Jun-20 @ 23:00 UTC

Jun-21@
03:00 UTC

Jun-21 @ 03:00 UTC

TEMPO 2023/2103 09003MPS 3100 BR FU SCT011

Temporary

Temporary Changes expected for less than half the time period

Wind
  • 090° at 6 KTS
Conditions
Mist, Smoke
Cloud Levels
  • Scattered at 1,100' AGL